Pagrindinis puslapis
METAR-TAF:

METAR-TAF

Oro uostai :

Naftos platforma

K13-a, Nyderlandai

platuma: 53-13-04N, ilguma: 3-13-13E, Aukštis: 31 m

Dabartinis oras

Ataskaita buvo paskelbta 26 minutes, ne 03:55 UTC
Vėjas 18 kt iš Rytų
Temperatūra 13°C
Drėgmė 88%
Slėgis 1025 hPa

METAR: EHJR 310355Z AUTO 08018KT //// // ///////// 13/11 Q1025 RE// W13/H7

Laikas: 06:21 (04:21 UTC)


TAF: trūkstamas

Orai ataskaitas ir orų prognozės (METAR, TAF).

turimą stotys yra geltonos ir raudonos taškus žemėlapyje.

Perkelti pele per norėdami pamatyti stoties vardą.

Tada spustelėkite, norėdami matyti oro stebėjimo ir prognozės.

Norėdami pakeisti žemėlapį: spustelėkite ant žalios mygtukų su juodo kryžiaus žemyn,; žalią mygtuką su brūkšneliu, jei norite nutolinti; arba žalių rodyklių gretimoms žemėlapius.


METAR-TAF: